Time;durP1;ratioP1;P1;durP2;ratioP2;P2;SDS_P1;SDS_P2;PMS_P1;PMS_P2;Temp;Humidity;BMP_temperature;BMP_pressure;BME280_temperature;BME280_humidity;BME280_pressure;Samples;Min_cycle;Max_cycle;Signal;HPM_P1;HPM_P2
2022/11/25 00:01:47;;;;;;;226.13;61.63;;;5.30;99.90;;;3.74;100.00;101155.44;5040313;28;20038;-85
2022/11/25 00:04:16;;;;;;;248.73;66.65;;;5.30;99.90;;;3.76;100.00;101145.84;5068941;28;20065;-85
2022/11/25 00:06:50;;;;;;;256.55;65.57;;;5.30;99.90;;;3.77;100.00;101142.34;5058973;22;20050;-84
2022/11/25 00:09:19;;;;;;;217.63;63.75;;;5.30;99.90;;;3.78;100.00;101146.69;5003857;28;20046;-85
2022/11/25 00:11:45;;;;;;;221.70;64.57;;;5.30;99.90;;;3.74;100.00;101138.91;5014365;28;20060;-85
2022/11/25 00:14:20;;;;;;;250.10;67.88;;;5.20;99.90;;;3.70;100.00;101138.09;5014716;28;20025;-85
2022/11/25 00:16:49;;;;;;;255.27;66.50;;;5.30;99.90;;;3.76;100.00;101135.44;4991560;28;20022;-86
2022/11/25 00:19:27;;;;;;;230.02;64.78;;;;;;;3.66;100.00;101133.81;4991717;28;20479;-86
2022/11/25 00:22:00;;;;;;;232.20;66.68;;;5.30;99.90;;;3.71;100.00;101142.41;5007856;28;20475;-84
2022/11/25 00:24:29;;;;;;;232.63;65.82;;;5.30;99.90;;;3.72;100.00;101141.56;4992054;28;20494;-85
2022/11/25 00:27:10;;;;;;;225.02;67.45;;;5.30;99.90;;;3.75;100.00;101146.72;5046827;23;20569;-84
2022/11/25 00:29:36;;;;;;;143.85;43.63;;;5.30;99.90;;;3.75;100.00;101149.31;5041409;28;20186;-84
2022/11/25 00:32:11;;;;;;;123.53;41.03;;;;;;;3.78;100.00;101146.69;5061607;28;20025;-85
2022/11/25 00:34:40;;;;;;;367.38;81.22;;;5.30;99.90;;;3.79;100.00;101142.34;5063988;28;20033;-85
2022/11/25 00:37:18;;;;;;;334.02;77.97;;;5.30;99.90;;;3.75;100.00;101141.50;5043502;28;20022;-85
2022/11/25 00:40:11;;;;;;;299.13;73.78;;;5.30;99.90;;;3.76;100.00;101135.44;5061355;28;20036;-85
2022/11/25 00:45:27;;;;;;;151.73;50.88;;;5.30;99.90;;;3.70;100.00;101133.75;5047468;28;20051;-84
2022/11/25 00:47:56;;;;;;;148.52;50.42;;;5.30;99.90;;;3.72;100.00;101141.56;5041964;28;20116;-85
2022/11/25 00:50:22;;;;;;;154.05;61.47;;;5.30;99.90;;;3.68;100.00;101147.69;5046512;28;20505;-84
2022/11/25 00:52:48;;;;;;;134.77;57.72;;;5.30;99.90;;;3.71;100.00;101150.25;5052124;28;20070;-85
2022/11/25 00:56:30;;;;;;;138.00;57.38;;;5.30;99.90;;;3.79;100.00;101158.84;5036735;28;20029;-85
2022/11/25 00:59:08;;;;;;;150.38;56.28;;;5.30;99.90;;;3.77;100.00;101159.72;5047932;28;20033;-85
2022/11/25 01:01:48;;;;;;;116.75;55.83;;;;;;;3.79;100.00;101155.38;5065699;28;20040;-85
2022/11/25 01:04:30;;;;;;;111.18;52.00;;;5.30;99.90;;;3.73;100.00;101161.50;5044957;28;20029;-85
2022/11/25 01:07:08;;;;;;;138.13;56.08;;;5.30;99.90;;;3.73;100.00;101166.72;5059961;28;20021;-85
2022/11/25 01:09:34;;;;;;;110.63;53.22;;;5.30;99.90;;;3.70;100.00;101170.22;5032012;28;20494;-85
2022/11/25 01:12:00;;;;;;;120.22;55.22;;;5.30;99.90;;;3.76;100.00;101171.03;5040885;28;20021;-85
2022/11/25 01:14:36;;;;;;;130.65;55.75;;;5.20;99.90;;;3.68;100.00;101158.94;5032719;28;20029;-85
2022/11/25 01:17:02;;;;;;;;;;;5.20;99.90;;;3.49;100.00;101160.03;5048699;28;20559;-85
2022/11/25 01:19:39;;;;;;;133.93;54.60;;;5.20;99.90;;;3.55;100.00;101165.19;5027562;28;20357;-85
2022/11/25 01:22:08;;;;;;;133.73;55.15;;;;;;;3.62;100.00;101152.94;5058235;28;20080;-85
2022/11/25 01:24:40;;;;;;;133.50;58.63;;;;;;;3.63;100.00;101158.16;5053404;28;20091;-85
2022/11/25 01:27:09;;;;;;;121.07;54.92;;;5.20;99.90;;;3.67;100.00;101158.97;5062163;22;20045;-85
2022/11/25 01:29:48;;;;;;;146.52;59.50;;;5.20;99.90;;;3.67;100.00;101162.44;5045893;28;20477;-85
2022/11/25 01:32:42;;;;;;;120.82;53.35;;;5.20;99.90;;;3.68;100.00;101155.50;5031706;28;20127;-85
2022/11/25 01:35:09;;;;;;;140.05;58.70;;;;;;;3.65;100.00;101158.13;5050874;28;20616;-85
2022/11/25 01:38:13;;;;;;;;;;;;;;;;;;;;;
2022/11/25 01:43:40;;;;;;;135.18;56.45;;;5.20;99.90;;;3.72;100.00;101158.94;5045710;28;20073;-85
2022/11/25 01:46:24;;;;;;;114.53;52.42;;;5.20;99.90;;;3.68;100.00;101163.31;5048366;23;20132;-85
2022/11/25 01:49:02;;;;;;;122.13;55.28;;;5.20;99.90;;;3.69;100.00;101160.69;5054529;28;20211;-85
2022/11/25 01:52:00;;;;;;;147.80;57.85;;;5.20;99.90;;;3.66;100.00;101160.72;5064182;28;20055;-85
2022/11/25 01:54:40;;;;;;;135.52;57.97;;;5.20;99.90;;;3.67;100.00;101161.56;5054289;28;20032;-85
2022/11/25 01:58:16;;;;;;;134.88;54.58;;;5.20;99.90;;;3.57;100.00;101163.41;5025122;28;20040;-85
2022/11/25 02:00:49;;;;;;;138.40;52.92;;;;;;;3.52;100.00;101159.13;5051322;28;20029;-85
2022/11/25 02:04:12;;;;;;;111.13;50.70;;;5.20;99.90;;;3.61;100.00;101161.66;5056336;28;20045;-84
2022/11/25 02:07:38;;;;;;;111.63;49.58;;;5.20;99.90;;;3.65;100.00;101160.72;5048400;23;20060;-85
2022/11/25 02:10:47;;;;;;;129.80;54.08;;;5.20;99.90;;;3.55;100.00;101146.94;5026711;28;20037;-85
2022/11/25 02:13:31;;;;;;;111.20;51.65;;;5.10;99.90;;;3.54;100.00;101146.97;5053823;28;20516;-85
2022/11/25 02:16:00;;;;;;;110.03;49.45;;;;;;;3.55;100.00;101146.09;5033295;28;20035;-85
2022/11/25 02:19:01;;;;;;;;;;;;;;;;;;;;;
2022/11/25 02:21:50;;;;;;;94.18;48.08;;;;;;;3.56;100.00;101155.63;5049888;28;20040;-84
2022/11/25 02:27:22;;;;;;;111.13;49.13;;;5.20;99.90;;;3.52;100.00;101153.94;5072447;23;20075;-84
2022/11/25 02:29:51;;;;;;;91.78;48.13;;;5.20;99.90;;;3.54;100.00;101155.63;5069854;28;20296;-85
2022/11/25 02:32:30;;;;;;;106.57;51.72;;;;;;;3.58;100.00;101153.88;5068552;28;20025;-83
2022/11/25 02:35:22;;;;;;;96.82;48.28;;;;;;;3.58;100.00;101152.13;5066956;28;20470;-84
2022/11/25 02:38:18;;;;;;;268.35;56.97;;;5.20;99.90;;;3.63;100.00;101157.31;5066983;28;20029;-85
2022/11/25 02:41:50;;;;;;;256.17;54.28;;;5.20;99.90;;;3.62;100.00;101163.38;5040496;28;20036;-84
2022/11/25 02:44:31;;;;;;;229.15;50.95;;;5.20;99.90;;;3.60;100.00;101165.97;5038237;28;20121;-85
2022/11/25 02:47:29;;;;;;;250.82;53.42;;;;;;;3.61;100.00;101162.50;5049408;28;20024;-85
2022/11/25 02:50:09;;;;;;;259.20;52.65;;;5.20;99.90;;;3.58;100.00;101162.53;5069371;28;20036;-85
2022/11/25 02:52:49;;;;;;;291.65;56.17;;;5.20;99.90;;;3.55;100.00;101159.13;5042157;28;20478;-85
2022/11/25 02:55:38;;;;;;;295.33;56.13;;;5.00;99.90;;;3.44;100.00;101149.66;5058384;28;20064;-85
2022/11/25 02:58:25;;;;;;;422.90;56.05;;;5.00;99.90;;;3.32;100.00;101162.81;5043427;28;20025;-84
2022/11/25 03:01:00;;;;;;;329.88;58.60;;;;;;;3.39;100.00;101159.28;5045782;28;20436;-84
2022/11/25 03:03:29;;;;;;;321.63;52.97;;;;;;;3.38;100.00;101160.13;5055276;28;20033;-84
2022/11/25 03:06:02;;;;;;;391.13;57.22;;;5.00;99.90;;;3.34;100.00;101150.63;5049438;28;20037;-84
2022/11/25 03:08:30;;;;;;;502.95;63.60;;;4.90;99.90;;;3.27;100.00;101146.38;5037388;28;20033;-85
2022/11/25 03:11:09;;;;;;;577.72;64.88;;;;;;;3.27;100.00;101141.16;5045891;28;20502;-84
2022/11/25 03:13:41;;;;;;;635.40;70.90;;;4.90;99.90;;;3.33;100.00;101148.94;5061155;28;20049;-84
2022/11/25 03:16:10;;;;;;;797.22;76.38;;;4.90;99.90;;;3.27;100.00;101152.44;5050206;28;20029;-85
2022/11/25 03:18:39;;;;;;;780.60;74.38;;;4.90;99.90;;;3.28;100.00;101142.88;5030018;28;20032;-84
2022/11/25 03:21:17;;;;;;;733.08;70.95;;;4.90;99.90;;;3.32;100.00;101143.72;5036048;28;20176;-84
2022/11/25 03:23:51;;;;;;;747.88;68.55;;;4.90;99.90;;;3.32;100.00;101147.19;5055451;28;20041;-85
2022/11/25 03:26:20;;;;;;;808.05;77.38;;;;;;;3.38;100.00;101144.53;5030371;28;20109;-83
2022/11/25 03:28:48;;;;;;;1999.90;999.90;;;4.90;99.90;;;3.29;100.00;101144.63;5060172;28;20417;-85
2022/11/25 03:31:23;;;;;;;1999.90;999.90;;;4.90;99.90;;;3.31;100.00;101148.06;5048617;28;20056;-84
2022/11/25 03:33:48;;;;;;;1999.90;999.90;;;4.90;99.90;;;3.28;100.00;101148.97;5037604;28;20516;-84
2022/11/25 03:36:17;;;;;;;427.77;63.65;;;5.00;99.90;;;3.31;100.00;101148.06;5052489;28;20029;-84
2022/11/25 03:38:52;;;;;;;1999.90;999.90;;;4.90;99.90;;;3.29;100.00;101150.69;5033973;28;20437;-85
2022/11/25 03:41:21;;;;;;;1999.90;999.90;;;4.90;99.90;;;3.33;100.00;101151.53;5052590;28;20604;-85
2022/11/25 03:44:10;;;;;;;1999.90;999.90;;;5.00;99.90;;;3.34;100.00;101148.03;5027115;28;20107;-85
2022/11/25 03:46:39;;;;;;;1999.90;999.90;;;4.90;99.90;;;3.33;100.00;101154.13;5025273;28;20043;-85
2022/11/25 03:49:20;;;;;;;1999.90;999.90;;;;;;;3.26;100.00;101152.44;5030562;28;20060;-85
2022/11/25 03:52:09;;;;;;;1999.90;999.90;;;4.90;99.90;;;3.27;100.00;101156.78;5059127;28;20053;-85
2022/11/25 03:54:41;;;;;;;1999.90;999.90;;;;;;;3.34;100.00;101160.19;5041024;28;20378;-85
2022/11/25 03:57:21;;;;;;;1999.90;999.90;;;4.90;99.90;;;3.26;100.00;101157.66;5065202;28;20049;-85
2022/11/25 04:00:00;;;;;;;1999.90;999.90;;;;;;;3.28;100.00;101161.09;5051039;28;20025;-85
2022/11/25 04:02:41;;;;;;;1999.90;999.90;;;4.90;99.90;;;3.26;100.00;101155.94;5038737;28;20107;-85
2022/11/25 04:05:32;;;;;;;1999.90;999.90;;;4.80;99.90;;;3.31;100.00;101155.03;5043334;28;20036;-85
2022/11/25 04:07:57;;;;;;;1999.90;999.90;;;4.80;99.90;;;3.08;100.00;101149.13;5046518;28;20465;-85
2022/11/25 04:10:23;;;;;;;1999.90;999.90;;;4.80;99.90;;;3.21;100.00;101146.44;5026646;28;20030;-85
2022/11/25 04:12:59;;;;;;;1999.90;999.90;;;;;;;3.16;100.00;101163.84;5046012;28;20036;-85
2022/11/25 04:15:28;;;;;;;1999.90;999.90;;;;;;;3.07;100.00;101168.25;5060513;28;20033;-86
2022/11/25 04:18:13;;;;;;;;;;;;;;;;;;;;;
2022/11/25 04:20:59;;;;;;;1999.90;999.90;;;4.70;99.90;;;2.89;100.00;101160.56;5045202;28;20547;-86
2022/11/25 04:23:40;;;;;;;1999.90;999.90;;;4.60;99.90;;;2.87;100.00;101167.53;5047313;28;20033;-84
2022/11/25 04:26:09;;;;;;;1999.90;999.90;;;;;;;2.74;100.00;101165.91;5035116;28;20090;-86
2022/11/25 04:29:19;;;;;;;1999.90;999.90;;;4.50;99.90;;;2.91;100.00;101165.78;5037193;28;20040;-85
2022/11/25 04:34:41;;;;;;;1999.90;999.90;;;4.50;99.90;;;2.74;100.00;101171.09;5029604;28;20052;-85
2022/11/25 04:37:19;;;;;;;1999.90;999.90;;;;;;;2.78;100.00;101168.47;5047095;28;20036;-84
2022/11/25 04:39:55;;;;;;;;;;;;;;;;;;;;;
2022/11/25 04:45:51;;;;;;;1999.90;999.90;;;4.50;99.90;;;2.83;100.00;101171.91;5041603;28;20514;-85
2022/11/25 04:51:10;;;;;;;1999.90;999.90;;;;;;;2.73;100.00;101166.78;5035202;28;20118;-84
2022/11/25 04:53:46;;;;;;;;;;;;;;;;;;;;;
2022/11/25 04:56:27;;;;;;;1999.90;999.90;;;4.40;99.90;;;2.67;100.00;101170.28;5047391;28;20037;-84
2022/11/25 05:01:49;;;;;;;1999.90;999.90;;;4.50;99.90;;;2.80;100.00;101179.72;5045600;28;20040;-85
2022/11/25 05:04:30;;;;;;;1999.90;999.90;;;4.40;99.90;;;2.76;100.00;101185.81;5048423;28;20021;-85
2022/11/25 05:07:27;;;;;;;1999.90;999.90;;;4.40;99.90;;;2.76;100.00;101191.00;5027324;28;20025;-85
2022/11/25 05:10:15;;;;;;;1999.90;999.90;;;;;;;2.82;100.00;101187.50;5049558;28;20025;-85
2022/11/25 05:12:49;;;;;;;1999.90;999.90;;;4.50;99.90;;;2.80;100.00;101184.91;5042187;28;20063;-85
2022/11/25 05:15:52;;;;;;;1999.90;999.90;;;;;;;2.92;100.00;101191.78;5048111;28;20032;-85
2022/11/25 05:18:18;;;;;;;1999.90;999.90;;;4.50;99.90;;;2.80;100.00;101187.50;5041924;28;20048;-85
2022/11/25 05:20:44;;;;;;;1999.90;999.90;;;4.50;99.90;;;2.81;100.00;101196.22;5056120;28;20505;-84
2022/11/25 05:23:10;;;;;;;1999.90;999.90;;;;;;;2.84;100.00;101199.63;5061540;28;20040;-83
2022/11/25 05:25:46;;;;;;;1999.90;999.90;;;4.50;99.90;;;2.88;100.00;101200.47;5057431;28;20087;-84
2022/11/25 05:28:40;;;;;;;1999.90;999.90;;;;;;;2.92;100.00;101209.13;5028879;28;20036;-84
2022/11/25 05:31:10;;;;;;;1999.90;999.90;;;4.60;99.90;;;2.88;100.00;101211.75;5059958;28;20044;-85
2022/11/25 05:33:50;;;;;;;1999.90;999.90;;;4.60;99.90;;;2.86;100.00;101213.50;5042193;28;20021;-84
2022/11/25 05:37:04;;;;;;;1999.90;999.90;;;4.60;99.90;;;2.87;100.00;101206.53;5045871;28;20116;-85
2022/11/25 05:39:39;;;;;;;1999.90;999.90;;;4.50;99.90;;;2.82;100.00;101216.13;5064530;28;20500;-82
2022/11/25 05:42:05;;;;;;;1999.90;999.90;;;4.50;99.90;;;2.75;100.00;101212.69;5044264;28;20029;-83
2022/11/25 05:44:30;;;;;;;1999.90;999.90;;;4.50;99.90;;;2.82;100.00;101223.94;5030239;28;20091;-83
2022/11/25 05:46:56;;;;;;;1999.90;999.90;;;4.60;99.90;;;2.91;100.00;101217.78;5049338;28;20116;-84
2022/11/25 05:49:29;;;;;;;1999.90;999.90;;;4.50;99.90;;;2.90;100.00;101214.34;5032223;28;20500;-84
2022/11/25 05:52:01;;;;;;;1999.90;999.90;;;4.50;99.90;;;2.79;100.00;101213.56;5044331;28;20040;-85
2022/11/25 05:54:40;;;;;;;1999.90;999.90;;;4.50;99.90;;;2.77;100.00;101213.56;5037529;28;20057;-84
2022/11/25 05:57:18;;;;;;;1999.90;999.90;;;;;;;2.80;100.00;101217.88;5034675;28;20033;-84
2022/11/25 05:59:45;;;;;;;12.07;5.32;;;;;;;2.85;100.00;101216.97;5048534;28;20036;-86
2022/11/25 06:02:39;;;;;;;16.65;8.15;;;4.50;99.90;;;2.78;100.00;101220.47;5064918;28;20043;-85
2022/11/25 06:08:01;;;;;;;11.55;4.70;;;4.50;99.90;;;2.83;100.00;101231.72;5045865;28;20046;-84
2022/11/25 06:10:39;;;;;;;183.98;124.03;;;4.60;99.90;;;2.87;100.00;101225.63;5045113;28;20041;-85
2022/11/25 06:13:20;;;;;;;1999.90;999.90;;;4.60;99.90;;;2.85;100.00;101232.59;5043753;28;20025;-85
2022/11/25 06:15:51;;;;;;;1999.90;999.90;;;4.50;99.90;;;2.78;100.00;101232.63;5034097;28;20059;-85
2022/11/25 06:18:20;;;;;;;1999.90;999.90;;;4.50;99.90;;;2.86;100.00;101241.25;5033416;28;20533;-85
2022/11/25 06:21:00;;;;;;;1999.90;999.90;;;;;;;2.78;100.00;101245.63;5051176;28;20032;-84
2022/11/25 06:23:39;;;;;;;1999.90;999.90;;;4.50;99.90;;;2.83;100.00;101243.84;5047052;28;20116;-86
2022/11/25 06:26:34;;;;;;;;;;;;;;;;;;;;;
2022/11/25 06:29:00;;;;;;;1999.90;999.90;;;4.50;99.90;;;2.85;100.00;101244.69;5051498;28;20029;-84
2022/11/25 06:31:26;;;;;;;1999.90;999.90;;;;;;;2.94;100.00;101251.56;5019334;28;20036;-84
2022/11/25 06:37:21;;;;;;;1999.90;999.90;;;4.60;99.90;;;2.97;100.00;101252.44;4999499;28;20458;-85
2022/11/25 06:39:53;;;;;;;;;;;4.50;99.90;;;2.86;100.00;101255.09;5036305;28;20570;-84
2022/11/25 06:42:19;;;;;;;0.10;0.10;;;4.50;99.90;;;2.90;100.00;101250.75;5017494;28;20008;-85
2022/11/25 06:45:03;;;;;;;0.00;0.00;;;4.50;99.90;;;2.80;100.00;101260.34;5035900;28;20109;-85
2022/11/25 06:48:14;;;;;;;0.00;0.00;;;4.50;99.90;;;2.84;100.00;101256.84;5035441;28;20033;-85
2022/11/25 06:51:23;;;;;;;0.00;0.00;;;4.50;99.90;;;2.87;100.00;101255.97;5021841;28;20026;-85
2022/11/25 06:54:01;;;;;;;1.65;1.55;;;;;;;2.88;100.00;101255.09;5021570;28;20112;-85
2022/11/25 06:56:30;;;;;;;0.10;0.10;;;;;;;2.86;100.00;101259.44;5031182;28;20069;-85
2022/11/25 06:59:43;;;;;;;0.50;0.50;;;4.50;99.90;;;2.82;100.00;101260.34;5032500;28;20034;-85
2022/11/25 07:02:21;;;;;;;1.48;1.38;;;4.50;99.90;;;2.90;100.00;101255.97;5027369;28;20025;-85
2022/11/25 07:05:14;;;;;;;8.80;7.72;;;4.50;99.90;;;2.94;100.00;101261.97;5033730;28;20034;-85
2022/11/25 07:07:42;;;;;;;4.45;4.22;;;4.50;99.90;;;2.80;100.00;101264.69;5022783;28;20052;-85
2022/11/25 07:10:08;;;;;;;1.42;1.42;;;4.50;99.90;;;2.86;100.00;101273.31;5011004;28;20029;-84
2022/11/25 07:12:41;;;;;;;1.60;1.50;;;4.50;99.90;;;2.80;100.00;101267.28;5019049;28;20021;-84
2022/11/25 07:15:11;;;;;;;2.38;2.15;;;4.50;99.90;;;2.92;100.00;101274.16;5014703;28;20033;-85
2022/11/25 07:17:47;;;;;;;0.65;0.65;;;;;;;3.00;100.00;101275.84;5035934;28;20635;-85
2022/11/25 07:20:13;;;;;;;;;;;4.60;99.90;;;2.86;100.00;101275.91;5027921;28;20468;-85
2022/11/25 07:22:53;;;;;;;0.20;0.20;;;4.50;99.90;;;2.95;100.00;101277.59;5014551;28;19966;-85
2022/11/25 07:25:19;;;;;;;1.98;1.48;;;4.50;99.90;;;2.81;100.00;101280.28;5011304;28;20034;-85
2022/11/25 07:27:44;;;;;;;0.20;0.20;;;4.60;99.90;;;2.97;100.00;101285.41;5052267;22;20490;-79
2022/11/25 07:30:10;;;;;;;0.00;0.00;;;4.60;99.90;;;2.99;100.00;101281.06;5042031;28;20106;-79
2022/11/25 07:32:36;;;;;;;0.00;0.00;;;4.60;99.90;;;2.99;100.00;101281.91;5040788;28;20021;-79
2022/11/25 07:35:05;;;;;;;0.00;0.00;;;4.60;99.90;;;3.05;100.00;101281.00;5025707;28;20125;-79
2022/11/25 07:37:31;;;;;;;0.00;0.00;;;4.70;99.90;;;3.06;100.00;101291.38;5046602;28;20041;-79
2022/11/25 07:39:57;;;;;;;0.75;0.75;;;4.70;99.90;;;3.12;100.00;101287.03;5045650;28;20112;-79
2022/11/25 07:42:23;;;;;;;0.10;0.10;;;4.70;99.90;;;3.08;100.00;101296.59;5045834;28;20043;-78
2022/11/25 07:44:49;;;;;;;0.50;0.50;;;4.70;99.90;;;3.11;100.00;101288.78;5060137;28;20021;-79
2022/11/25 07:47:19;;;;;;;0.30;0.30;;;4.70;99.90;;;3.17;100.00;101291.31;5046423;28;20048;-78
2022/11/25 07:49:45;;;;;;;0.03;0.03;;;4.80;99.90;;;3.22;100.00;101293.91;5060152;28;20036;-78
2022/11/25 07:52:11;;;;;;;0.10;0.10;;;4.70;99.90;;;3.11;100.00;101280.97;5041716;28;20135;-79
2022/11/25 07:54:36;;;;;;;0.20;0.20;;;4.80;99.90;;;3.07;100.00;101277.53;5047943;28;20124;-80
2022/11/25 07:57:02;;;;;;;0.15;0.15;;;4.80;99.90;;;3.15;100.00;101281.78;5049146;28;20689;-78
2022/11/25 07:59:28;;;;;;;1999.90;999.90;;;4.80;99.90;;;3.03;100.00;101275.81;5046201;28;20028;-79
2022/11/25 08:01:57;;;;;;;1999.90;999.90;;;4.80;99.90;;;3.14;100.00;101283.53;5039325;28;20687;-78
2022/11/25 08:04:23;;;;;;;10.38;9.38;;;4.80;99.90;;;3.19;100.00;101284.38;5043513;28;20076;-78
2022/11/25 08:06:51;;;;;;;5.03;4.00;;;4.80;99.90;;;3.27;100.00;101284.31;5073439;28;20029;-79
2022/11/25 08:09:21;;;;;;;1999.90;999.90;;;4.90;99.90;;;3.38;100.00;101286.84;5043621;28;20097;-80
2022/11/25 08:11:55;;;;;;;457.17;58.75;;;4.90;99.90;;;3.34;100.00;101283.38;5038517;28;20032;-80
2022/11/25 08:14:20;;;;;;;471.52;63.03;;;4.90;99.90;;;3.38;100.00;101295.50;5026435;28;20033;-78
2022/11/25 08:16:46;;;;;;;207.88;33.53;;;5.00;99.90;;;3.42;100.00;101286.81;5048934;28;20045;-79
2022/11/25 08:19:17;;;;;;;158.52;38.42;;;5.00;99.90;;;3.42;100.00;101286.81;5024806;28;20159;-78
2022/11/25 08:21:43;;;;;;;396.58;58.17;;;5.00;99.90;;;3.48;100.00;101298.91;5031757;28;20134;-79
2022/11/25 08:24:19;;;;;;;421.00;60.47;;;5.10;99.90;;;3.54;100.00;101295.38;5052856;28;20128;-79
2022/11/25 08:26:50;;;;;;;370.40;63.00;;;5.10;99.90;;;3.48;100.00;101291.97;5055068;28;20032;-79
2022/11/25 08:29:17;;;;;;;404.15;58.70;;;5.10;99.90;;;3.55;100.00;101297.13;5044062;28;20025;-79
2022/11/25 08:31:43;;;;;;;411.30;60.38;;;5.20;99.90;;;3.60;100.00;101298.78;5042935;28;20183;-79
2022/11/25 08:34:19;;;;;;;411.52;60.20;;;5.20;99.90;;;3.65;100.00;101285.72;5023529;28;20591;-77
2022/11/25 08:36:45;;;;;;;343.95;48.05;;;5.20;99.90;;;3.59;100.00;101301.44;5024814;28;20033;-78
2022/11/25 08:39:11;;;;;;;59.70;21.13;;;5.20;99.90;;;3.63;100.00;101297.94;5042883;28;20040;-77
2022/11/25 08:41:37;;;;;;;962.67;373.50;;;5.20;99.90;;;3.60;100.00;101295.34;5047395;28;20455;-78
2022/11/25 08:44:07;;;;;;;427.58;59.63;;;5.30;99.90;;;3.69;100.00;101292.63;5043527;28;20025;-80
2022/11/25 08:46:36;;;;;;;437.10;60.05;;;6.40;99.90;;;3.76;100.00;101294.34;5059945;28;20021;-78
2022/11/25 08:49:04;;;;;;;396.58;57.13;;;5.40;99.90;;;3.83;100.00;101288.16;5050232;28;20026;-79
2022/11/25 08:51:35;;;;;;;380.60;55.88;;;5.30;99.90;;;3.73;100.00;101288.28;5042770;28;20040;-78
2022/11/25 08:54:01;;;;;;;394.55;59.35;;;5.40;99.90;;;3.82;100.00;101286.47;5049765;28;20029;-77
2022/11/25 08:56:27;;;;;;;370.65;55.88;;;5.40;99.90;;;3.86;100.00;101293.34;5050518;28;20037;-78
2022/11/25 08:58:54;;;;;;;347.67;53.47;;;5.40;99.90;;;3.73;100.00;101294.34;5024794;28;20335;-78
2022/11/25 09:01:21;;;;;;;370.50;55.70;;;5.40;99.90;;;3.80;100.00;101293.44;5040257;28;20045;-79
2022/11/25 09:03:52;;;;;;;382.55;59.15;;;5.50;99.90;;;3.90;100.00;101292.44;5041593;28;20044;-80
2022/11/25 09:06:22;;;;;;;408.45;64.82;;;5.50;99.90;;;3.96;100.00;101293.28;5030027;28;20080;-80
2022/11/25 09:08:48;;;;;;;425.52;62.63;;;5.60;99.90;;;3.97;100.00;101298.44;5048003;28;20049;-77
2022/11/25 09:11:17;;;;;;;220.98;53.40;;;5.60;99.90;;;4.08;100.00;101303.53;5041677;28;20042;-78
2022/11/25 09:13:48;;;;;;;370.73;70.18;;;5.70;99.90;;;4.14;100.00;101298.28;5026143;28;20080;-79
2022/11/25 09:16:14;;;;;;;715.63;131.13;;;5.60;99.90;;;4.04;100.00;101304.44;5045312;28;20036;-80
2022/11/25 09:18:41;;;;;;;338.38;58.90;;;5.70;99.90;;;4.11;100.00;101309.59;5024858;28;20045;-80
2022/11/25 09:21:13;;;;;;;390.67;65.88;;;5.70;99.90;;;4.19;100.00;101304.31;5043388;28;20059;-79
2022/11/25 09:23:39;;;;;;;414.88;61.78;;;5.80;99.90;;;4.22;100.00;101312.09;5041101;28;20108;-79
2022/11/25 09:26:18;;;;;;;1999.90;999.90;;;5.80;99.90;;;4.26;100.00;101308.56;5044278;28;20513;-81
2022/11/25 09:28:44;;;;;;;642.13;323.40;;;5.80;99.90;;;4.26;100.00;101308.56;5036351;28;20037;-81
2022/11/25 09:31:13;;;;;;;1999.90;999.90;;;5.90;99.90;;;4.31;100.00;101316.34;5045769;28;20472;-80
2022/11/25 09:33:47;;;;;;;1999.90;999.90;;;5.90;99.90;;;4.33;100.00;101314.59;5042757;28;20045;-80
2022/11/25 09:36:18;;;;;;;630.17;218.18;;;5.90;99.90;;;4.33;100.00;101319.78;5035631;28;20044;-79
2022/11/25 09:38:50;;;;;;;296.63;53.75;;;5.90;99.90;;;4.28;100.00;101319.84;5045595;28;20040;-80
2022/11/25 09:48:01;;;;;;;273.20;53.42;;;6.00;99.90;;;4.55;100.00;101314.31;5041849;28;20081;-80
2022/11/25 09:50:42;;;;;;;268.67;51.63;;;6.10;99.90;;;4.60;100.00;101310.78;5034750;28;20052;-80
2022/11/25 09:54:15;;;;;;;257.27;50.63;;;6.10;99.90;;;4.63;100.00;101307.28;5044193;28;20030;-80
2022/11/25 09:57:01;;;;;;;253.10;49.72;;;6.20;99.90;;;4.68;100.00;101314.13;4995030;28;20038;-80
2022/11/25 09:59:53;;;;;;;236.10;49.38;;;6.20;99.90;;;4.74;100.00;101310.59;5046274;28;20049;-81
2022/11/25 10:02:57;;;;;;;619.17;115.22;;;6.30;99.90;;;4.69;100.00;101304.59;5050539;28;20041;-80
2022/11/25 10:05:36;;;;;;;228.85;47.60;;;6.30;99.90;;;4.67;100.00;101308.97;5056892;28;20064;-79
2022/11/25 10:08:16;;;;;;;185.02;41.78;;;6.30;99.90;;;4.69;100.00;101313.28;5046127;28;20033;-79
2022/11/25 10:10:57;;;;;;;216.93;50.25;;;6.30;99.90;;;4.78;100.00;101316.66;5030575;28;20102;-79
2022/11/25 10:13:51;;;;;;;227.20;52.22;;;6.40;99.90;;;4.79;100.00;101315.75;5044416;28;20036;-79
2022/11/25 10:16:35;;;;;;;232.15;50.97;;;6.40;99.90;;;4.90;100.00;101313.84;5062700;28;20048;-80
2022/11/25 10:19:29;;;;;;;206.07;46.85;;;6.40;99.90;;;4.94;100.00;101311.19;5047433;28;20163;-80
2022/11/25 10:21:58;;;;;;;210.73;46.60;;;6.50;99.90;;;4.94;100.00;101312.94;5042559;28;20037;-81
2022/11/25 10:24:24;;;;;;;208.95;48.25;;;6.50;99.90;;;4.93;100.00;101314.69;5055710;28;20033;-81
2022/11/25 10:27:03;;;;;;;193.57;47.38;;;6.50;99.90;;;5.02;100.00;101313.69;5050454;28;20505;-79
2022/11/25 10:29:30;;;;;;;194.43;46.33;;;6.60;99.90;;;5.05;100.00;101323.22;5051541;28;20086;-80
2022/11/25 10:32:24;;;;;;;178.40;45.80;;;6.60;99.90;;;5.04;100.00;101317.16;5046355;28;20128;-81
2022/11/25 10:35:04;;;;;;;188.65;47.05;;;6.70;99.90;;;5.17;100.00;101303.94;5048674;28;20048;-79
2022/11/25 10:37:43;;;;;;;196.40;47.08;;;6.70;99.90;;;5.21;100.00;101306.47;5046621;28;20041;-80
2022/11/25 10:40:20;;;;;;;205.80;47.75;;;6.70;99.90;;;5.21;100.00;101308.22;5033033;28;20044;-80
2022/11/25 10:42:48;;;;;;;;;;;6.70;99.90;;;5.18;100.00;101308.25;5047497;28;20041;-81
2022/11/25 10:45:21;;;;;;;175.32;46.20;;;6.70;99.90;;;5.19;100.00;101305.63;5060469;28;19917;-80
2022/11/25 10:48:17;;;;;;;176.18;46.65;;;6.80;99.90;;;5.24;100.00;101310.78;5044167;28;20041;-81
2022/11/25 10:51:29;;;;;;;174.38;44.05;;;6.80;99.90;;;5.23;100.00;101309.06;5046797;28;20037;-79
2022/11/25 10:54:28;;;;;;;180.73;46.85;;;6.80;99.90;;;5.28;100.00;101313.31;5056992;28;20029;-81
2022/11/25 10:57:01;;;;;;;167.70;43.95;;;6.80;99.90;;;5.34;100.00;101309.75;5030175;28;20481;-79
2022/11/25 10:59:41;;;;;;;172.85;45.15;;;6.90;99.90;;;5.46;100.00;101312.16;5045040;28;20067;-80
2022/11/25 11:02:18;;;;;;;178.32;44.63;;;6.90;99.90;;;5.55;100.00;101312.03;5053392;28;20055;-81
2022/11/25 11:05:28;;;;;;;155.25;42.97;;;7.00;99.90;;;5.59;100.00;101312.81;5044080;28;20036;-80
2022/11/25 11:08:22;;;;;;;147.73;40.60;;;7.10;99.90;;;5.57;100.00;101309.34;5045519;28;20060;-80
2022/11/25 11:11:23;;;;;;;157.43;44.28;;;7.20;99.90;;;5.72;100.00;101313.47;5043746;28;20033;-81
2022/11/25 11:13:57;;;;;;;1999.90;999.90;;;7.20;99.90;;;5.85;100.00;101309.78;5059798;28;20033;-80
2022/11/25 11:16:51;;;;;;;163.05;68.07;;;7.30;99.90;;;5.87;100.00;101315.81;5052050;28;20029;-80
2022/11/25 11:19:58;;;;;;;85.43;36.10;;;7.30;99.90;;;5.85;100.00;101322.84;5041356;28;20131;-80
2022/11/25 11:22:24;;;;;;;48.83;14.18;;;7.30;99.90;;;5.83;100.00;101324.63;5020938;28;20037;-80
2022/11/25 11:25:25;;;;;;;4.05;1.98;;;7.40;99.90;;;5.99;100.00;101319.16;5044555;28;20040;-80
2022/11/25 11:27:52;;;;;;;16.00;7.03;;;7.50;99.90;;;6.03;100.00;101326.06;5033567;28;20491;-82
2022/11/25 11:30:22;;;;;;;104.63;33.22;;;7.50;99.90;;;6.11;100.00;101331.97;5048828;28;20032;-81
2022/11/25 11:33:12;;;;;;;97.32;33.78;;;7.50;99.90;;;6.01;100.00;101331.31;5045920;28;20022;-81
2022/11/25 11:36:12;;;;;;;97.38;34.75;;;7.60;99.90;;;6.08;100.00;101332.06;5034155;28;20032;-82